METAR AND TAF INFORMATION
METAR FOR LGKP
ADDS - METARS form results

(2345 UTC 28 January 2023)
Data provider http://aviationweather.gov/metar/data/
 
METAR text: LGKP 282330Z AUTO 30006KT //// // ////// 11/07 Q1014 RE//
Conditions at: LGKP (KARPATHOS , GR) observed 2330 UTC 28 January 2023
Temperature: 11.0°C (52°F)
Dewpoint: 7.0°C (45°F) [RH = 76%]
Pressure (altimeter): 29.94 inches Hg (1014.0 mb)
Winds: from the WNW (300 degrees) at 7 MPH (6 knots; 3.1 m/s)
Visibility: missing
Ceiling: unknown
Clouds: missing
Weather: no significant weather observed at this time

METAR text: LGKP 282300Z AUTO 31006KT //// // ////// 11/07 Q1014 RE//
Conditions at: LGKP (KARPATHOS , GR) observed 2300 UTC 28 January 2023
Temperature: 11.0°C (52°F)
Dewpoint: 7.0°C (45°F) [RH = 76%]
Pressure (altimeter): 29.94 inches Hg (1014.0 mb)
Winds: from the NW (310 degrees) at 7 MPH (6 knots; 3.1 m/s)
Visibility: missing
Ceiling: unknown
Clouds: missing
Weather: no significant weather observed at this time

Forecast for: LGKP (KARPATHOS , GR)
Text: TAF LGKP 282300Z 2900/2909 33020KT 9999 SCT020
Forecast period: 0000 to 0900 UTC 29 January 2023
Forecast type: FROM: standard forecast or significant change
Winds: from the NNW (330 degrees) at 23 MPH (20 knots; 10.3 m/s)
Visibility: 6 or more miles (10+ km)
Ceiling: at least 12,000 feet AGL
Clouds: scattered clouds at 2000 feet AGL
Weather: no significant weather forecast for this period
Text: PROB30
Forecast period: 0000 to 0900 UTC 29 January 2023
Forecast type: TEMPORARY: The following changes expected for less than half the time period
Visibility: 3 miles (5 km)
Ceiling: unknown
Clouds: missing
Weather: RA  (moderate rain)
Text: TEMPO 2900/2909 5000 RA
Forecast period: 0000 to 0900 UTC 29 January 2023
Forecast type: TEMPORARY: The following changes expected for less than half the time period
Visibility: 2.49 miles (4.01 km)
Ceiling: 2000 feet AGL
Clouds: few clouds at 1800 feet AGL
broken clouds at 2000 feet AGL
Weather: SHRA  (rain showers)

 AIRPORT MAP

 RUNWAY INFORMATION
Runway 12 Runway length 7871 ft Runway width 98 ft
Runway elevation 36 ft Runway displaced threshold 492 ft Runway heading 124
Runway 30 Runway length 7871 ft Runway width 98 ft
Runway elevation 62 ft Runway displaced threshold 492 ft Runway heading 304

 AIRPORT FREQUENCIES
Type A/G Name RDO Frequency 563.7 MHZ
Type INFO Name INFO Frequency 122.1 MHZ

 AIRPORT NEAR NAVIGATION AIDS
Type NDB Name Karpathos Frequency 314 KHZ
Type TACAN Name Karpathos Frequency 109600 KHZ